»·PEaware :: N172MY KCMA-KRDD

N172MY :: KCMA-KRDD

FLIGHT INFORMATION

Flight Status: Arrived
Operator: Privately registered:
United States
More flights under this callsign
Pilot: Christopher V. (26992)
Aircraft: Unknown
(DA65)
More flights by this aircraft type
Origin: KCMA Camarillo
United States
Destination: KRDD Redding Mun
United States
More flights between these airports :: More routes between these airports
Route: +FLW PXN
File this flight plan on PilotEdge
Remarks:
Altitude:
(Current/Filed)
12,000ft
Speed:
(Current/Filed)
200kts
Departed: 15-Nov-20 03:02 PM
Arrived: 15-Nov-20 04:37 PM
Distance/Time
Traveled:
407nm/1:35
Distance/Time
To Go:
Arrived

Flight Plot

Page will automatically refresh every two minutes.

Flight plan parsing failed; only flown route is shown


Map Options




Map Legend


Flown Route
Filed Route
Departure Airport
Arrival Airport
Navaid (VOR, NDB)
Fix

Horizontal Profiles

Position Reports

Time Latitude Longitude Heading Altitude Ground
Speed
15-Nov-20 15:00 36.583356 -120.702452 334 10498ft 140kts
15-Nov-20 15:01 36.618749 -120.721413 334 10535ft 138kts
15-Nov-20 15:02 36.654175 -120.737357 341 10552ft 138kts
15-Nov-20 15:03 36.690843 -120.751384 340 10518ft 135kts
15-Nov-20 15:04 36.727606 -120.765435 340 10519ft 137kts
15-Nov-20 15:05 36.764565 -120.779607 339 10537ft 139kts
15-Nov-20 15:06 36.801227 -120.794969 338 10521ft 137kts
15-Nov-20 15:07 36.837336 -120.810034 339 10529ft 136kts
15-Nov-20 15:08 36.873429 -120.825123 338 10526ft 136kts
15-Nov-20 15:09 36.909790 -120.840335 339 10528ft 143kts
15-Nov-20 15:10 36.950296 -120.857284 339 10530ft 159kts
15-Nov-20 15:11 36.992299 -120.874900 339 10527ft 159kts
15-Nov-20 15:12 37.034620 -120.892666 336 10529ft 163kts
15-Nov-20 15:13 37.078363 -120.911048 336 10532ft 168kts
15-Nov-20 15:14 37.122803 -120.929743 336 10530ft 168kts
15-Nov-20 15:15 37.167200 -120.948450 336 10530ft 168kts
15-Nov-20 15:16 37.211655 -120.967198 336 10530ft 168kts
15-Nov-20 15:17 37.256182 -120.986009 336 10517ft 169kts
15-Nov-20 15:18 37.300626 -121.004796 336 10503ft 169kts
15-Nov-20 15:19 37.345028 -121.023596 336 10501ft 168kts
15-Nov-20 15:20 37.389559 -121.042473 336 10501ft 168kts
15-Nov-20 15:21 37.433967 -121.061324 336 10502ft 168kts
15-Nov-20 15:22 37.478460 -121.080229 334 10501ft 168kts
15-Nov-20 15:23 37.523093 -121.099216 335 10502ft 169kts
15-Nov-20 15:24 37.567670 -121.118212 334 10501ft 169kts
15-Nov-20 15:25 37.612466 -121.137321 335 10502ft 169kts
15-Nov-20 15:26 37.657115 -121.156390 334 10501ft 169kts
15-Nov-20 15:27 37.701830 -121.175517 335 10501ft 169kts
15-Nov-20 15:28 37.746633 -121.194700 334 10501ft 169kts
15-Nov-20 15:29 37.791218 -121.213821 334 10503ft 169kts
15-Nov-20 15:30 37.835946 -121.233017 334 10501ft 169kts
15-Nov-20 15:31 37.880634 -121.252231 335 10501ft 169kts
15-Nov-20 15:32 37.925306 -121.271460 334 10502ft 169kts
15-Nov-20 15:33 37.969892 -121.290672 334 10503ft 169kts
15-Nov-20 15:34 38.014645 -121.309983 334 10502ft 169kts
15-Nov-20 15:35 38.059277 -121.329267 334 10502ft 169kts
15-Nov-20 15:36 38.104023 -121.348629 333 10502ft 169kts
15-Nov-20 15:37 38.148565 -121.367922 333 10503ft 169kts
15-Nov-20 15:38 38.193325 -121.387339 333 10501ft 169kts
15-Nov-20 15:39 38.238031 -121.406752 333 10501ft 169kts
15-Nov-20 15:40 38.282767 -121.426210 333 10493ft 169kts
15-Nov-20 15:41 38.327461 -121.445672 333 10491ft 169kts
15-Nov-20 15:42 38.372066 -121.465122 333 10493ft 170kts
15-Nov-20 15:43 38.416858 -121.484676 333 10494ft 170kts
15-Nov-20 15:44 38.461604 -121.504240 333 10492ft 169kts
15-Nov-20 15:45 38.506320 -121.523808 333 10492ft 169kts
15-Nov-20 15:46 38.550992 -121.543393 333 10493ft 169kts
15-Nov-20 15:47 38.595547 -121.562947 333 10492ft 169kts
15-Nov-20 15:48 38.639968 -121.582472 333 10491ft 169kts
15-Nov-20 15:49 38.684554 -121.602090 333 10493ft 169kts
15-Nov-20 15:50 38.729095 -121.621719 333 10493ft 169kts
15-Nov-20 15:51 38.773766 -121.641424 333 10492ft 169kts
15-Nov-20 15:52 38.818435 -121.661163 333 10492ft 169kts
15-Nov-20 15:53 38.863090 -121.680914 332 10494ft 169kts
15-Nov-20 15:54 38.907732 -121.700690 332 10492ft 169kts
15-Nov-20 15:55 38.952184 -121.720407 333 10493ft 169kts
15-Nov-20 15:56 38.996833 -121.740240 333 10492ft 169kts
15-Nov-20 15:57 39.041774 -121.759571 334 10405ft 173kts
15-Nov-20 15:58 39.087364 -121.776929 337 9990ft 170kts
15-Nov-20 15:59 39.133075 -121.796979 336 9573ft 178kts
15-Nov-20 16:00 39.180384 -121.819827 338 9082ft 183kts
15-Nov-20 16:01 39.228259 -121.842591 338 8575ft 183kts
15-Nov-20 16:02 39.275838 -121.865139 338 8071ft 181kts
15-Nov-20 16:04 39.322946 -121.887435 338 7572ft 180kts
15-Nov-20 16:05 39.369743 -121.909566 338 7072ft 178kts
15-Nov-20 16:06 39.416309 -121.931572 338 6604ft 176kts
15-Nov-20 16:07 39.460791 -121.952534 338 6526ft 166kts
15-Nov-20 16:08 39.504016 -121.972258 342 6523ft 164kts
15-Nov-20 16:09 39.548032 -121.988498 343 6513ft 164kts
15-Nov-20 16:10 39.592825 -122.005004 343 6274ft 171kts
15-Nov-20 16:11 39.639303 -122.022160 344 5868ft 173kts
15-Nov-20 16:12 39.686058 -122.037347 347 5432ft 174kts
15-Nov-20 16:13 39.733759 -122.049880 347 4928ft 174kts
15-Nov-20 16:14 39.780907 -122.063262 347 4426ft 172kts
15-Nov-20 16:15 39.828017 -122.077172 346 3925ft 177kts
15-Nov-20 16:16 39.875340 -122.088707 346 3422ft 162kts
15-Nov-20 16:17 39.918914 -122.098006 344 2920ft 156kts
15-Nov-20 16:18 39.960896 -122.109697 342 2534ft 149kts
15-Nov-20 16:19 39.998498 -122.119804 342 2495ft 132kts
15-Nov-20 16:19 40.028331 -122.127600 342 2497ft 130kts
15-Nov-20 16:21 40.069612 -122.138297 343 2494ft 129kts
15-Nov-20 16:21 40.099171 -122.145919 342 2494ft 129kts
15-Nov-20 16:23 40.140144 -122.156459 343 2494ft 128kts
15-Nov-20 16:23 40.169540 -122.164034 343 2495ft 129kts
15-Nov-20 16:25 40.210653 -122.174620 343 2493ft 129kts
15-Nov-20 16:26 40.246135 -122.183525 342 2492ft 132kts
15-Nov-20 16:26 40.277435 -122.190336 344 2493ft 143kts
15-Nov-20 16:28 40.323766 -122.208811 342 2493ft 151kts
15-Nov-20 16:28 40.356557 -122.223075 346 2298ft 141kts
15-Nov-20 16:29 40.393604 -122.237781 346 1828ft 138kts
15-Nov-20 16:30 40.428453 -122.251826 346 1513ft 120kts
15-Nov-20 16:31 40.460460 -122.260961 357 1515ft 121kts
15-Nov-20 16:32 40.494937 -122.265913 359 1496ft 125kts
15-Nov-20 16:33 40.529729 -122.270580 358 1492ft 127kts
15-Nov-20 16:34 40.554248 -122.287670 218 1497ft 92kts
15-Nov-20 16:35 40.533611 -122.294932 174 1023ft 81kts
15-Nov-20 16:36 40.512881 -122.294794 180 502ft 30kts
15-Nov-20 16:37 40.508404 -122.296091 301 502ft 0kts
15-Nov-20 16:38 40.507750 -122.298069 249 502ft 14kts
15-Nov-20 16:39 40.507867 -122.299152 357 500ft 0kts
15-Nov-20 16:40 40.507867 -122.299152 357 500ft 0kts
15-Nov-20 16:41 40.507867 -122.299152 357 500ft 0kts
15-Nov-20 16:42 40.507867 -122.299152 357 500ft 0kts
15-Nov-20 16:43 40.507867 -122.299152 357 500ft 0kts
15-Nov-20 16:44 40.507867 -122.299152 357 500ft 0kts
15-Nov-20 16:45 40.507867 -122.299152 357 500ft 0kts
15-Nov-20 16:46 40.507867 -122.299152 357 500ft 0kts
15-Nov-20 16:47 40.507867 -122.299152 357 500ft 0kts
15-Nov-20 16:48 40.507867 -122.299152 357 500ft 0kts
15-Nov-20 16:49 40.507867 -122.299152 357 500ft 0kts
15-Nov-20 16:50 40.507867 -122.299152 357 500ft 0kts
15-Nov-20 16:51 40.507867 -122.299152 357 500ft 0kts

Navigation Log

Ident Type
Flight plan parsing failed, navigation log unavailable